sensor_id;sensor_type;location;lat;lon;timestamp;temperature;humidity
51914;DHT22;37940;53.002;6.930;2022-11-11T00:01:08;10.40;99.90
51914;DHT22;37940;53.002;6.930;2022-11-11T00:03:34;10.30;99.90
51914;DHT22;37940;53.002;6.930;2022-11-11T00:06:05;10.40;99.90
51914;DHT22;37940;53.002;6.930;2022-11-11T00:08:31;10.40;99.90
51914;DHT22;37940;53.002;6.930;2022-11-11T00:11:05;10.40;99.90
51914;DHT22;37940;53.002;6.930;2022-11-11T00:13:31;10.40;99.90
51914;DHT22;37940;53.002;6.930;2022-11-11T00:16:06;10.50;99.90
51914;DHT22;37940;53.002;6.930;2022-11-11T00:18:33;10.50;99.90
51914;DHT22;37940;53.002;6.930;2022-11-11T00:21:17;10.50;99.90
51914;DHT22;37940;53.002;6.930;2022-11-11T00:24:02;10.60;99.90
51914;DHT22;37940;53.002;6.930;2022-11-11T00:26:47;10.50;99.90
51914;DHT22;37940;53.002;6.930;2022-11-11T00:29:12;10.60;99.90
51914;DHT22;37940;53.002;6.930;2022-11-11T00:31:38;10.60;99.90
51914;DHT22;37940;53.002;6.930;2022-11-11T00:34:24;10.60;99.90
51914;DHT22;37940;53.002;6.930;2022-11-11T00:36:50;10.60;99.90
51914;DHT22;37940;53.002;6.930;2022-11-11T00:39:15;10.70;99.90
51914;DHT22;37940;53.002;6.930;2022-11-11T00:41:41;10.60;99.90
51914;DHT22;37940;53.002;6.930;2022-11-11T00:44:07;10.70;99.90
51914;DHT22;37940;53.002;6.930;2022-11-11T00:46:32;10.60;99.90
51914;DHT22;37940;53.002;6.930;2022-11-11T00:49:17;10.70;99.90
51914;DHT22;37940;53.002;6.930;2022-11-11T00:52:01;10.70;99.90
51914;DHT22;37940;53.002;6.930;2022-11-11T00:54:26;10.70;99.90
51914;DHT22;37940;53.002;6.930;2022-11-11T00:56:52;10.70;99.90
51914;DHT22;37940;53.002;6.930;2022-11-11T00:59:18;10.70;99.90
51914;DHT22;37940;53.002;6.930;2022-11-11T01:01:43;10.80;99.90
51914;DHT22;37940;53.002;6.930;2022-11-11T01:04:09;10.70;99.90
51914;DHT22;37940;53.002;6.930;2022-11-11T01:06:36;10.70;99.90
51914;DHT22;37940;53.002;6.930;2022-11-11T01:09:05;10.70;99.90
51914;DHT22;37940;53.002;6.930;2022-11-11T01:11:31;10.70;99.90
51914;DHT22;37940;53.002;6.930;2022-11-11T01:13:57;10.70;99.90
51914;DHT22;37940;53.002;6.930;2022-11-11T01:16:25;10.70;99.90
51914;DHT22;37940;53.002;6.930;2022-11-11T01:18:52;10.70;99.90
51914;DHT22;37940;53.002;6.930;2022-11-11T01:21:20;10.60;99.90
51914;DHT22;37940;53.002;6.930;2022-11-11T01:23:47;10.70;99.90
51914;DHT22;37940;53.002;6.930;2022-11-11T01:28:43;10.50;99.90
51914;DHT22;37940;53.002;6.930;2022-11-11T01:31:12;10.50;99.90
51914;DHT22;37940;53.002;6.930;2022-11-11T01:33:38;10.50;99.90
51914;DHT22;37940;53.002;6.930;2022-11-11T01:36:07;10.50;99.90
51914;DHT22;37940;53.002;6.930;2022-11-11T01:38:33;10.50;99.90
51914;DHT22;37940;53.002;6.930;2022-11-11T01:40:59;10.50;99.90
51914;DHT22;37940;53.002;6.930;2022-11-11T01:43:25;10.40;99.90
51914;DHT22;37940;53.002;6.930;2022-11-11T01:48:30;10.30;99.90
51914;DHT22;37940;53.002;6.930;2022-11-11T01:54:28;10.30;99.90
51914;DHT22;37940;53.002;6.930;2022-11-11T01:57:01;10.20;99.90
51914;DHT22;37940;53.002;6.930;2022-11-11T01:59:28;10.20;99.90
51914;DHT22;37940;53.002;6.930;2022-11-11T02:01:56;10.10;99.90
51914;DHT22;37940;53.002;6.930;2022-11-11T02:04:22;10.10;99.90
51914;DHT22;37940;53.002;6.930;2022-11-11T02:07:09;10.20;99.90
51914;DHT22;37940;53.002;6.930;2022-11-11T02:09:38;10.10;99.90
51914;DHT22;37940;53.002;6.930;2022-11-11T02:12:08;10.00;99.90
51914;DHT22;37940;53.002;6.930;2022-11-11T02:14:55;10.00;99.90
51914;DHT22;37940;53.002;6.930;2022-11-11T02:17:23;9.90;99.90
51914;DHT22;37940;53.002;6.930;2022-11-11T02:19:56;9.90;99.90
51914;DHT22;37940;53.002;6.930;2022-11-11T02:24:53;9.80;99.90
51914;DHT22;37940;53.002;6.930;2022-11-11T02:27:19;9.80;99.90
51914;DHT22;37940;53.002;6.930;2022-11-11T02:29:49;9.70;99.90
51914;DHT22;37940;53.002;6.930;2022-11-11T02:32:15;9.70;99.90
51914;DHT22;37940;53.002;6.930;2022-11-11T02:34:41;9.70;99.90
51914;DHT22;37940;53.002;6.930;2022-11-11T02:37:07;9.70;99.90
51914;DHT22;37940;53.002;6.930;2022-11-11T02:39:36;9.70;99.90
51914;DHT22;37940;53.002;6.930;2022-11-11T02:42:03;9.80;99.90
51914;DHT22;37940;53.002;6.930;2022-11-11T02:44:35;9.70;99.90
51914;DHT22;37940;53.002;6.930;2022-11-11T02:47:02;9.70;99.90
51914;DHT22;37940;53.002;6.930;2022-11-11T02:49:28;9.70;99.90
51914;DHT22;37940;53.002;6.930;2022-11-11T02:51:54;9.70;99.90
51914;DHT22;37940;53.002;6.930;2022-11-11T02:54:20;9.70;99.90
51914;DHT22;37940;53.002;6.930;2022-11-11T02:56:45;9.70;99.90
51914;DHT22;37940;53.002;6.930;2022-11-11T02:59:30;9.70;99.90
51914;DHT22;37940;53.002;6.930;2022-11-11T03:01:56;9.80;99.90
51914;DHT22;37940;53.002;6.930;2022-11-11T03:04:21;9.80;99.90
51914;DHT22;37940;53.002;6.930;2022-11-11T03:06:47;9.90;99.90
51914;DHT22;37940;53.002;6.930;2022-11-11T03:09:13;9.90;99.90
51914;DHT22;37940;53.002;6.930;2022-11-11T03:11:39;9.90;99.90
51914;DHT22;37940;53.002;6.930;2022-11-11T03:14:05;9.90;99.90
51914;DHT22;37940;53.002;6.930;2022-11-11T03:16:32;9.90;99.90
51914;DHT22;37940;53.002;6.930;2022-11-11T03:19:17;9.90;99.90
51914;DHT22;37940;53.002;6.930;2022-11-11T03:21:43;10.00;99.90
51914;DHT22;37940;53.002;6.930;2022-11-11T03:24:09;10.00;99.90
51914;DHT22;37940;53.002;6.930;2022-11-11T03:26:35;10.00;99.90
51914;DHT22;37940;53.002;6.930;2022-11-11T03:29:01;10.10;99.90
51914;DHT22;37940;53.002;6.930;2022-11-11T03:31:27;10.00;99.90
51914;DHT22;37940;53.002;6.930;2022-11-11T03:33:52;10.00;99.90
51914;DHT22;37940;53.002;6.930;2022-11-11T03:36:18;10.00;99.90
51914;DHT22;37940;53.002;6.930;2022-11-11T03:38:44;10.00;99.90
51914;DHT22;37940;53.002;6.930;2022-11-11T03:41:09;10.00;99.90
51914;DHT22;37940;53.002;6.930;2022-11-11T03:43:35;10.10;99.90
51914;DHT22;37940;53.002;6.930;2022-11-11T03:46:03;10.00;99.90
51914;DHT22;37940;53.002;6.930;2022-11-11T03:48:31;10.10;99.90
51914;DHT22;37940;53.002;6.930;2022-11-11T03:50:57;10.10;99.90
51914;DHT22;37940;53.002;6.930;2022-11-11T03:53:23;10.10;99.90
51914;DHT22;37940;53.002;6.930;2022-11-11T03:55:50;10.10;99.90
51914;DHT22;37940;53.002;6.930;2022-11-11T03:58:17;10.10;99.90
51914;DHT22;37940;53.002;6.930;2022-11-11T04:00:43;10.10;99.90
51914;DHT22;37940;53.002;6.930;2022-11-11T04:03:11;10.10;99.90
51914;DHT22;37940;53.002;6.930;2022-11-11T04:05:56;10.40;99.90
51914;DHT22;37940;53.002;6.930;2022-11-11T04:08:40;10.10;99.90
51914;DHT22;37940;53.002;6.930;2022-11-11T04:11:42;10.10;99.90
51914;DHT22;37940;53.002;6.930;2022-11-11T04:14:11;10.10;99.90
51914;DHT22;37940;53.002;6.930;2022-11-11T04:16:56;10.10;99.90
51914;DHT22;37940;53.002;6.930;2022-11-11T04:19:22;10.10;99.90
51914;DHT22;37940;53.002;6.930;2022-11-11T04:22:06;10.10;99.90
51914;DHT22;37940;53.002;6.930;2022-11-11T04:24:32;10.00;99.90
51914;DHT22;37940;53.002;6.930;2022-11-11T04:27:18;10.10;99.90
51914;DHT22;37940;53.002;6.930;2022-11-11T04:29:44;10.10;99.90
51914;DHT22;37940;53.002;6.930;2022-11-11T04:32:20;10.10;99.90
51914;DHT22;37940;53.002;6.930;2022-11-11T04:35:11;10.10;99.90
51914;DHT22;37940;53.002;6.930;2022-11-11T04:37:46;10.10;99.90
51914;DHT22;37940;53.002;6.930;2022-11-11T04:40:14;10.10;99.90
51914;DHT22;37940;53.002;6.930;2022-11-11T04:42:58;10.10;99.90
51914;DHT22;37940;53.002;6.930;2022-11-11T04:45:23;10.30;99.90
51914;DHT22;37940;53.002;6.930;2022-11-11T04:48:02;10.20;99.90
51914;DHT22;37940;53.002;6.930;2022-11-11T04:50:34;10.20;99.90
51914;DHT22;37940;53.002;6.930;2022-11-11T04:53:01;10.20;99.90
51914;DHT22;37940;53.002;6.930;2022-11-11T04:55:27;10.20;99.90
51914;DHT22;37940;53.002;6.930;2022-11-11T04:58:12;10.20;99.90
51914;DHT22;37940;53.002;6.930;2022-11-11T05:00:38;10.20;99.90
51914;DHT22;37940;53.002;6.930;2022-11-11T05:03:04;10.20;99.90
51914;DHT22;37940;53.002;6.930;2022-11-11T05:08:32;10.30;99.90
51914;DHT22;37940;53.002;6.930;2022-11-11T05:11:17;10.20;99.90
51914;DHT22;37940;53.002;6.930;2022-11-11T05:13:43;10.30;99.90
51914;DHT22;37940;53.002;6.930;2022-11-11T05:16:29;10.30;99.90
51914;DHT22;37940;53.002;6.930;2022-11-11T05:19:15;10.20;99.90
51914;DHT22;37940;53.002;6.930;2022-11-11T05:22:32;10.30;99.90
51914;DHT22;37940;53.002;6.930;2022-11-11T05:24:59;10.30;99.90
51914;DHT22;37940;53.002;6.930;2022-11-11T05:27:43;10.30;99.90
51914;DHT22;37940;53.002;6.930;2022-11-11T05:30:10;10.30;99.90
51914;DHT22;37940;53.002;6.930;2022-11-11T05:32:37;10.30;99.90
51914;DHT22;37940;53.002;6.930;2022-11-11T05:35:04;10.30;99.90
51914;DHT22;37940;53.002;6.930;2022-11-11T05:37:30;10.30;99.90
51914;DHT22;37940;53.002;6.930;2022-11-11T05:39:56;10.30;99.90
51914;DHT22;37940;53.002;6.930;2022-11-11T05:42:22;10.30;99.90
51914;DHT22;37940;53.002;6.930;2022-11-11T05:44:47;10.40;99.90
51914;DHT22;37940;53.002;6.930;2022-11-11T05:47:13;10.40;99.90
51914;DHT22;37940;53.002;6.930;2022-11-11T05:49:39;10.40;99.90
51914;DHT22;37940;53.002;6.930;2022-11-11T05:52:05;10.40;99.90
51914;DHT22;37940;53.002;6.930;2022-11-11T05:54:32;10.40;99.90
51914;DHT22;37940;53.002;6.930;2022-11-11T05:56:57;10.40;99.90
51914;DHT22;37940;53.002;6.930;2022-11-11T05:59:23;10.40;99.90
51914;DHT22;37940;53.002;6.930;2022-11-11T06:01:49;10.40;99.90
51914;DHT22;37940;53.002;6.930;2022-11-11T06:04:14;10.40;99.90
51914;DHT22;37940;53.002;6.930;2022-11-11T06:06:40;10.40;99.90
51914;DHT22;37940;53.002;6.930;2022-11-11T06:09:06;10.40;99.90
51914;DHT22;37940;53.002;6.930;2022-11-11T06:11:32;10.50;99.90
51914;DHT22;37940;53.002;6.930;2022-11-11T06:13:58;10.40;99.90
51914;DHT22;37940;53.002;6.930;2022-11-11T06:16:23;10.40;99.90
51914;DHT22;37940;53.002;6.930;2022-11-11T06:18:50;10.40;99.90
51914;DHT22;37940;53.002;6.930;2022-11-11T06:21:16;10.40;99.90
51914;DHT22;37940;53.002;6.930;2022-11-11T06:23:43;10.40;99.90
51914;DHT22;37940;53.002;6.930;2022-11-11T06:26:12;10.40;99.90
51914;DHT22;37940;53.002;6.930;2022-11-11T06:28:44;10.30;99.90
51914;DHT22;37940;53.002;6.930;2022-11-11T06:31:15;10.40;99.90
51914;DHT22;37940;53.002;6.930;2022-11-11T06:33:41;10.40;99.90
51914;DHT22;37940;53.002;6.930;2022-11-11T06:36:09;10.40;99.90
51914;DHT22;37940;53.002;6.930;2022-11-11T06:38:36;10.40;99.90
51914;DHT22;37940;53.002;6.930;2022-11-11T06:41:01;10.50;99.90
51914;DHT22;37940;53.002;6.930;2022-11-11T06:43:28;10.40;99.90
51914;DHT22;37940;53.002;6.930;2022-11-11T06:45:54;10.60;99.90
51914;DHT22;37940;53.002;6.930;2022-11-11T06:48:21;10.40;99.90
51914;DHT22;37940;53.002;6.930;2022-11-11T06:50:47;10.40;99.90
51914;DHT22;37940;53.002;6.930;2022-11-11T06:53:15;10.50;99.90
51914;DHT22;37940;53.002;6.930;2022-11-11T06:55:42;10.60;99.90
51914;DHT22;37940;53.002;6.930;2022-11-11T06:58:11;10.40;99.90
51914;DHT22;37940;53.002;6.930;2022-11-11T07:00:38;10.40;99.90
51914;DHT22;37940;53.002;6.930;2022-11-11T07:03:06;10.50;99.90
51914;DHT22;37940;53.002;6.930;2022-11-11T07:05:32;10.50;99.90
51914;DHT22;37940;53.002;6.930;2022-11-11T07:08:09;10.40;99.90
51914;DHT22;37940;53.002;6.930;2022-11-11T07:10:38;10.40;99.90
51914;DHT22;37940;53.002;6.930;2022-11-11T07:13:05;10.50;99.90
51914;DHT22;37940;53.002;6.930;2022-11-11T07:15:31;10.50;99.90
51914;DHT22;37940;53.002;6.930;2022-11-11T07:17:57;10.50;99.90
51914;DHT22;37940;53.002;6.930;2022-11-11T07:20:23;10.50;99.90
51914;DHT22;37940;53.002;6.930;2022-11-11T07:22:48;10.80;99.90
51914;DHT22;37940;53.002;6.930;2022-11-11T07:25:14;10.50;99.90
51914;DHT22;37940;53.002;6.930;2022-11-11T07:27:41;10.50;99.90
51914;DHT22;37940;53.002;6.930;2022-11-11T07:30:09;10.50;99.90
51914;DHT22;37940;53.002;6.930;2022-11-11T07:32:35;10.50;99.90
51914;DHT22;37940;53.002;6.930;2022-11-11T07:35:01;10.60;99.90
51914;DHT22;37940;53.002;6.930;2022-11-11T07:37:29;10.60;99.90
51914;DHT22;37940;53.002;6.930;2022-11-11T07:39:55;10.50;99.90
51914;DHT22;37940;53.002;6.930;2022-11-11T07:42:21;10.60;99.90
51914;DHT22;37940;53.002;6.930;2022-11-11T07:44:47;10.60;99.90
51914;DHT22;37940;53.002;6.930;2022-11-11T07:47:12;10.60;99.90
51914;DHT22;37940;53.002;6.930;2022-11-11T07:49:38;10.60;99.90
51914;DHT22;37940;53.002;6.930;2022-11-11T07:52:04;10.60;99.90
51914;DHT22;37940;53.002;6.930;2022-11-11T07:54:31;10.60;99.90
51914;DHT22;37940;53.002;6.930;2022-11-11T07:56:57;10.60;99.90
51914;DHT22;37940;53.002;6.930;2022-11-11T07:59:22;10.60;99.90
51914;DHT22;37940;53.002;6.930;2022-11-11T08:01:48;10.60;99.90
51914;DHT22;37940;53.002;6.930;2022-11-11T08:04:14;10.70;99.90
51914;DHT22;37940;53.002;6.930;2022-11-11T08:06:39;10.70;99.90
51914;DHT22;37940;53.002;6.930;2022-11-11T08:09:05;10.70;99.90
51914;DHT22;37940;53.002;6.930;2022-11-11T08:11:31;10.70;99.90
51914;DHT22;37940;53.002;6.930;2022-11-11T08:14:32;10.70;99.90
51914;DHT22;37940;53.002;6.930;2022-11-11T08:16:57;10.70;99.90
51914;DHT22;37940;53.002;6.930;2022-11-11T08:19:23;10.70;99.90
51914;DHT22;37940;53.002;6.930;2022-11-11T08:21:50;10.70;99.90
51914;DHT22;37940;53.002;6.930;2022-11-11T08:24:16;10.70;99.90
51914;DHT22;37940;53.002;6.930;2022-11-11T08:26:43;10.70;99.90
51914;DHT22;37940;53.002;6.930;2022-11-11T08:29:08;11.10;99.90
51914;DHT22;37940;53.002;6.930;2022-11-11T08:31:34;10.80;99.90
51914;DHT22;37940;53.002;6.930;2022-11-11T08:34:00;10.80;99.90
51914;DHT22;37940;53.002;6.930;2022-11-11T08:36:25;10.80;99.90
51914;DHT22;37940;53.002;6.930;2022-11-11T08:38:51;10.80;99.90
51914;DHT22;37940;53.002;6.930;2022-11-11T08:41:17;11.30;99.90
51914;DHT22;37940;53.002;6.930;2022-11-11T08:43:43;11.20;99.90
51914;DHT22;37940;53.002;6.930;2022-11-11T08:46:08;10.90;99.90
51914;DHT22;37940;53.002;6.930;2022-11-11T08:48:36;10.90;99.90
51914;DHT22;37940;53.002;6.930;2022-11-11T08:51:01;10.90;99.90
51914;DHT22;37940;53.002;6.930;2022-11-11T08:53:27;10.90;99.90
51914;DHT22;37940;53.002;6.930;2022-11-11T08:55:53;11.00;99.90
51914;DHT22;37940;53.002;6.930;2022-11-11T08:58:19;11.00;99.90
51914;DHT22;37940;53.002;6.930;2022-11-11T09:00:45;11.10;99.90
51914;DHT22;37940;53.002;6.930;2022-11-11T09:03:11;11.10;99.90
51914;DHT22;37940;53.002;6.930;2022-11-11T09:05:38;11.10;99.90
51914;DHT22;37940;53.002;6.930;2022-11-11T09:08:05;11.20;99.90
51914;DHT22;37940;53.002;6.930;2022-11-11T09:10:33;11.20;99.90
51914;DHT22;37940;53.002;6.930;2022-11-11T09:12:59;11.20;99.90
51914;DHT22;37940;53.002;6.930;2022-11-11T09:15:26;11.30;99.90
51914;DHT22;37940;53.002;6.930;2022-11-11T09:17:52;11.30;99.90
51914;DHT22;37940;53.002;6.930;2022-11-11T09:20:19;11.40;99.90
51914;DHT22;37940;53.002;6.930;2022-11-11T09:22:45;11.40;99.90
51914;DHT22;37940;53.002;6.930;2022-11-11T09:25:12;11.40;99.90
51914;DHT22;37940;53.002;6.930;2022-11-11T09:27:38;11.40;99.90
51914;DHT22;37940;53.002;6.930;2022-11-11T09:30:05;11.40;99.90
51914;DHT22;37940;53.002;6.930;2022-11-11T09:32:32;11.40;99.90
51914;DHT22;37940;53.002;6.930;2022-11-11T09:34:57;11.40;99.90
51914;DHT22;37940;53.002;6.930;2022-11-11T09:37:23;11.50;99.90
51914;DHT22;37940;53.002;6.930;2022-11-11T09:39:49;11.50;99.90
51914;DHT22;37940;53.002;6.930;2022-11-11T09:50:09;11.70;99.90
51914;DHT22;37940;53.002;6.930;2022-11-11T09:52:57;11.70;99.90
51914;DHT22;37940;53.002;6.930;2022-11-11T09:55:35;11.80;99.90
51914;DHT22;37940;53.002;6.930;2022-11-11T09:58:44;11.80;99.90
51914;DHT22;37940;53.002;6.930;2022-11-11T10:01:25;11.80;99.90
51914;DHT22;37940;53.002;6.930;2022-11-11T10:06:45;11.90;99.90
51914;DHT22;37940;53.002;6.930;2022-11-11T10:09:23;12.00;99.90
51914;DHT22;37940;53.002;6.930;2022-11-11T10:11:57;12.00;99.90
51914;DHT22;37940;53.002;6.930;2022-11-11T10:14:34;12.10;99.90
51914;DHT22;37940;53.002;6.930;2022-11-11T10:20:17;12.10;99.90
51914;DHT22;37940;53.002;6.930;2022-11-11T10:22:46;12.10;99.90
51914;DHT22;37940;53.002;6.930;2022-11-11T10:25:26;12.20;99.90
51914;DHT22;37940;53.002;6.930;2022-11-11T10:27:55;12.20;99.90
51914;DHT22;37940;53.002;6.930;2022-11-11T10:30:31;12.30;99.90
51914;DHT22;37940;53.002;6.930;2022-11-11T10:33:00;12.30;99.90
51914;DHT22;37940;53.002;6.930;2022-11-11T10:35:28;12.30;99.90
51914;DHT22;37940;53.002;6.930;2022-11-11T10:40:51;12.30;99.90
51914;DHT22;37940;53.002;6.930;2022-11-11T10:43:25;12.40;99.90
51914;DHT22;37940;53.002;6.930;2022-11-11T10:46:53;12.40;99.90
51914;DHT22;37940;53.002;6.930;2022-11-11T10:48:59;12.40;99.90
51914;DHT22;37940;53.002;6.930;2022-11-11T10:51:33;12.30;99.90
51914;DHT22;37940;53.002;6.930;2022-11-11T10:54:36;12.40;99.90
51914;DHT22;37940;53.002;6.930;2022-11-11T10:57:14;12.40;99.90
51914;DHT22;37940;53.002;6.930;2022-11-11T10:59:52;12.70;99.90
51914;DHT22;37940;53.002;6.930;2022-11-11T11:02:22;12.30;99.90
51914;DHT22;37940;53.002;6.930;2022-11-11T11:04:57;12.30;99.90
51914;DHT22;37940;53.002;6.930;2022-11-11T11:07:36;12.40;99.90
51914;DHT22;37940;53.002;6.930;2022-11-11T11:10:17;12.40;99.90
51914;DHT22;37940;53.002;6.930;2022-11-11T11:13:03;12.40;99.90
51914;DHT22;37940;53.002;6.930;2022-11-11T11:15:31;12.50;99.90
51914;DHT22;37940;53.002;6.930;2022-11-11T11:18:08;12.50;99.90
51914;DHT22;37940;53.002;6.930;2022-11-11T11:20:36;12.50;99.90
51914;DHT22;37940;53.002;6.930;2022-11-11T11:23:01;12.50;99.90
51914;DHT22;37940;53.002;6.930;2022-11-11T11:25:29;12.60;99.90
51914;DHT22;37940;53.002;6.930;2022-11-11T11:28:12;12.40;99.90
51914;DHT22;37940;53.002;6.930;2022-11-11T11:30:38;12.30;99.90
51914;DHT22;37940;53.002;6.930;2022-11-11T11:33:08;12.40;99.90
51914;DHT22;37940;53.002;6.930;2022-11-11T11:38:09;12.20;99.90
51914;DHT22;37940;53.002;6.930;2022-11-11T11:40:50;12.20;99.90
51914;DHT22;37940;53.002;6.930;2022-11-11T11:45:57;12.20;99.90
51914;DHT22;37940;53.002;6.930;2022-11-11T11:48:40;12.10;99.90
51914;DHT22;37940;53.002;6.930;2022-11-11T11:57:03;11.90;99.90
51914;DHT22;37940;53.002;6.930;2022-11-11T11:59:40;11.90;99.90
51914;DHT22;37940;53.002;6.930;2022-11-11T12:16:20;12.10;99.90
51914;DHT22;37940;53.002;6.930;2022-11-11T12:18:50;12.10;99.90
51914;DHT22;37940;53.002;6.930;2022-11-11T12:21:37;12.20;99.90
51914;DHT22;37940;53.002;6.930;2022-11-11T12:26:54;12.20;99.90
51914;DHT22;37940;53.002;6.930;2022-11-11T12:32:25;12.30;99.90
51914;DHT22;37940;53.002;6.930;2022-11-11T12:37:56;12.40;99.90
51914;DHT22;37940;53.002;6.930;2022-11-11T12:43:20;12.50;99.90
51914;DHT22;37940;53.002;6.930;2022-11-11T12:46:05;12.60;99.90
51914;DHT22;37940;53.002;6.930;2022-11-11T12:51:47;12.80;99.90
51914;DHT22;37940;53.002;6.930;2022-11-11T12:57:25;12.80;99.90
51914;DHT22;37940;53.002;6.930;2022-11-11T12:59:57;12.80;99.90
51914;DHT22;37940;53.002;6.930;2022-11-11T13:05:19;12.80;99.90
51914;DHT22;37940;53.002;6.930;2022-11-11T13:08:08;12.80;99.90
51914;DHT22;37940;53.002;6.930;2022-11-11T13:14:00;12.90;99.90
51914;DHT22;37940;53.002;6.930;2022-11-11T13:16:28;12.90;99.90
51914;DHT22;37940;53.002;6.930;2022-11-11T13:21:33;12.90;99.90
51914;DHT22;37940;53.002;6.930;2022-11-11T13:24:00;13.00;99.90
51914;DHT22;37940;53.002;6.930;2022-11-11T13:26:28;12.90;99.90
51914;DHT22;37940;53.002;6.930;2022-11-11T13:32:00;12.80;99.90
51914;DHT22;37940;53.002;6.930;2022-11-11T13:34:30;12.80;99.90
51914;DHT22;37940;53.002;6.930;2022-11-11T13:37:02;12.80;99.90
51914;DHT22;37940;53.002;6.930;2022-11-11T13:39:48;12.70;99.90
51914;DHT22;37940;53.002;6.930;2022-11-11T13:42:21;12.70;99.90
51914;DHT22;37940;53.002;6.930;2022-11-11T13:44:57;12.70;99.90
51914;DHT22;37940;53.002;6.930;2022-11-11T13:47:33;12.80;99.90
51914;DHT22;37940;53.002;6.930;2022-11-11T13:50:05;12.80;99.90
51914;DHT22;37940;53.002;6.930;2022-11-11T13:52:37;12.80;99.90
51914;DHT22;37940;53.002;6.930;2022-11-11T13:55:20;12.80;99.90
51914;DHT22;37940;53.002;6.930;2022-11-11T13:57:50;12.80;99.90
51914;DHT22;37940;53.002;6.930;2022-11-11T14:02:42;12.70;99.90
51914;DHT22;37940;53.002;6.930;2022-11-11T14:15:51;12.50;99.90
51914;DHT22;37940;53.002;6.930;2022-11-11T14:20:48;12.50;99.90
51914;DHT22;37940;53.002;6.930;2022-11-11T14:26:14;12.40;99.90
51914;DHT22;37940;53.002;6.930;2022-11-11T14:28:56;12.30;99.90
51914;DHT22;37940;53.002;6.930;2022-11-11T14:41:49;12.20;99.90
51914;DHT22;37940;53.002;6.930;2022-11-11T14:57:39;11.90;99.90
51914;DHT22;37940;53.002;6.930;2022-11-11T15:02:46;11.80;99.90
51914;DHT22;37940;53.002;6.930;2022-11-11T15:16:46;11.30;99.90
51914;DHT22;37940;53.002;6.930;2022-11-11T15:25:05;11.00;99.90
51914;DHT22;37940;53.002;6.930;2022-11-11T15:27:55;10.80;99.90
51914;DHT22;37940;53.002;6.930;2022-11-11T15:30:51;10.80;99.90
51914;DHT22;37940;53.002;6.930;2022-11-11T15:33:43;10.60;99.90
51914;DHT22;37940;53.002;6.930;2022-11-11T15:38:40;10.40;99.90
51914;DHT22;37940;53.002;6.930;2022-11-11T15:41:25;10.30;99.90
51914;DHT22;37940;53.002;6.930;2022-11-11T15:43:54;10.20;99.90
51914;DHT22;37940;53.002;6.930;2022-11-11T15:46:26;10.10;99.90
51914;DHT22;37940;53.002;6.930;2022-11-11T15:48:52;10.00;99.90
51914;DHT22;37940;53.002;6.930;2022-11-11T15:53:47;9.90;99.90
51914;DHT22;37940;53.002;6.930;2022-11-11T15:56:31;9.80;99.90
51914;DHT22;37940;53.002;6.930;2022-11-11T15:59:07;9.80;99.90
51914;DHT22;37940;53.002;6.930;2022-11-11T16:01:40;9.80;99.90
51914;DHT22;37940;53.002;6.930;2022-11-11T16:04:17;9.80;99.90
51914;DHT22;37940;53.002;6.930;2022-11-11T16:06:44;9.80;99.90
51914;DHT22;37940;53.002;6.930;2022-11-11T16:09:13;9.80;99.90
51914;DHT22;37940;53.002;6.930;2022-11-11T16:11:41;9.80;99.90
51914;DHT22;37940;53.002;6.930;2022-11-11T16:14:17;9.80;99.90
51914;DHT22;37940;53.002;6.930;2022-11-11T16:16:44;9.80;99.90
51914;DHT22;37940;53.002;6.930;2022-11-11T16:22:15;9.90;99.90
51914;DHT22;37940;53.002;6.930;2022-11-11T16:24:42;9.90;99.90
51914;DHT22;37940;53.002;6.930;2022-11-11T16:27:14;10.00;99.90
51914;DHT22;37940;53.002;6.930;2022-11-11T16:29:41;10.00;99.90
51914;DHT22;37940;53.002;6.930;2022-11-11T16:32:39;10.10;99.90
51914;DHT22;37940;53.002;6.930;2022-11-11T16:35:39;10.10;99.90
51914;DHT22;37940;53.002;6.930;2022-11-11T16:38:05;10.10;99.90
51914;DHT22;37940;53.002;6.930;2022-11-11T16:43:24;10.20;99.90
51914;DHT22;37940;53.002;6.930;2022-11-11T16:46:12;10.20;99.90
51914;DHT22;37940;53.002;6.930;2022-11-11T16:48:44;10.20;99.90
51914;DHT22;37940;53.002;6.930;2022-11-11T16:51:36;10.20;99.90
51914;DHT22;37940;53.002;6.930;2022-11-11T16:54:15;10.20;99.90
51914;DHT22;37940;53.002;6.930;2022-11-11T16:56:44;10.20;99.90
51914;DHT22;37940;53.002;6.930;2022-11-11T16:59:18;10.20;99.90
51914;DHT22;37940;53.002;6.930;2022-11-11T17:01:45;10.10;99.90
51914;DHT22;37940;53.002;6.930;2022-11-11T17:04:12;10.10;99.90
51914;DHT22;37940;53.002;6.930;2022-11-11T17:06:55;10.00;99.90
51914;DHT22;37940;53.002;6.930;2022-11-11T17:09:29;9.90;99.90
51914;DHT22;37940;53.002;6.930;2022-11-11T17:11:55;9.80;99.90
51914;DHT22;37940;53.002;6.930;2022-11-11T17:14:21;9.70;99.90
51914;DHT22;37940;53.002;6.930;2022-11-11T17:16:47;9.60;99.90
51914;DHT22;37940;53.002;6.930;2022-11-11T17:19:13;9.50;99.90
51914;DHT22;37940;53.002;6.930;2022-11-11T17:21:39;9.30;99.90
51914;DHT22;37940;53.002;6.930;2022-11-11T17:24:04;9.30;99.90
51914;DHT22;37940;53.002;6.930;2022-11-11T17:26:30;9.20;99.90
51914;DHT22;37940;53.002;6.930;2022-11-11T17:28:56;9.10;99.90
51914;DHT22;37940;53.002;6.930;2022-11-11T17:31:22;9.10;99.90
51914;DHT22;37940;53.002;6.930;2022-11-11T17:33:50;9.00;99.90
51914;DHT22;37940;53.002;6.930;2022-11-11T17:36:16;8.90;99.90
51914;DHT22;37940;53.002;6.930;2022-11-11T17:38:42;8.80;99.90
51914;DHT22;37940;53.002;6.930;2022-11-11T17:41:12;8.90;99.90
51914;DHT22;37940;53.002;6.930;2022-11-11T17:43:38;8.70;99.90
51914;DHT22;37940;53.002;6.930;2022-11-11T17:46:05;8.60;99.90
51914;DHT22;37940;53.002;6.930;2022-11-11T17:48:31;8.50;99.90
51914;DHT22;37940;53.002;6.930;2022-11-11T17:50:57;8.40;99.90
51914;DHT22;37940;53.002;6.930;2022-11-11T17:53:23;8.40;99.90
51914;DHT22;37940;53.002;6.930;2022-11-11T17:55:49;8.60;99.90
51914;DHT22;37940;53.002;6.930;2022-11-11T17:58:17;8.70;99.90
51914;DHT22;37940;53.002;6.930;2022-11-11T18:00:43;8.20;99.90
51914;DHT22;37940;53.002;6.930;2022-11-11T18:03:10;8.20;99.90
51914;DHT22;37940;53.002;6.930;2022-11-11T18:05:36;8.40;99.90
51914;DHT22;37940;53.002;6.930;2022-11-11T18:08:02;8.00;99.90
51914;DHT22;37940;53.002;6.930;2022-11-11T18:10:28;8.00;99.90
51914;DHT22;37940;53.002;6.930;2022-11-11T18:12:56;7.90;99.90
51914;DHT22;37940;53.002;6.930;2022-11-11T18:15:21;8.00;99.90
51914;DHT22;37940;53.002;6.930;2022-11-11T18:17:47;7.80;99.90
51914;DHT22;37940;53.002;6.930;2022-11-11T18:20:13;7.80;99.90
51914;DHT22;37940;53.002;6.930;2022-11-11T18:22:38;7.70;99.90
51914;DHT22;37940;53.002;6.930;2022-11-11T18:25:04;7.60;99.90
51914;DHT22;37940;53.002;6.930;2022-11-11T18:27:30;7.60;99.90
51914;DHT22;37940;53.002;6.930;2022-11-11T18:29:56;7.70;99.90
51914;DHT22;37940;53.002;6.930;2022-11-11T18:32:21;7.50;99.90
51914;DHT22;37940;53.002;6.930;2022-11-11T18:34:47;7.40;99.90